TimeMST,TemperatureF,Dew PointF,Humidity,Sea Level PressureIn,VisibilityMPH,Wind Direction,Wind SpeedMPH,Gust SpeedMPH,PrecipitationIn,Events,Conditions,WindDirDegrees,DateUTC
12:15 AM,50.0,6.8,17,30.25,10.0,SSE,8.1,-,N/A,,Clear,150,2013-06-18 07:15:00
12:35 AM,50.0,6.8,17,30.25,10.0,SSE,8.1,-,N/A,,Clear,150,2013-06-18 07:35:00
12:55 AM,48.2,8.6,20,30.24,10.0,SSE,8.1,-,N/A,,Clear,150,2013-06-18 07:55:00
1:15 AM,48.2,8.6,20,30.24,10.0,SSE,6.9,-,N/A,,Clear,150,2013-06-18 08:15:00
1:35 AM,48.2,8.6,20,30.24,10.0,SSE,8.1,-,N/A,,Clear,150,2013-06-18 08:35:00
1:55 AM,46.4,8.6,22,30.23,10.0,SSE,8.1,-,N/A,,Clear,150,2013-06-18 08:55:00
2:15 AM,46.4,8.6,22,30.23,10.0,SSE,8.1,-,N/A,,Clear,150,2013-06-18 09:15:00
2:35 AM,44.6,10.4,25,30.22,10.0,SSE,10.4,-,N/A,,Clear,150,2013-06-18 09:35:00
2:55 AM,44.6,10.4,25,30.22,10.0,SSE,8.1,-,N/A,,Clear,150,2013-06-18 09:55:00
3:15 AM,44.6,10.4,25,30.22,10.0,SSE,9.2,-,N/A,,Clear,150,2013-06-18 10:15:00
3:35 AM,44.6,10.4,25,30.22,10.0,SSE,8.1,-,N/A,,Clear,150,2013-06-18 10:35:00
3:55 AM,42.8,10.4,27,30.23,10.0,SSE,6.9,-,N/A,,Clear,150,2013-06-18 10:55:00
4:15 AM,41.0,10.4,29,30.23,10.0,SSE,6.9,-,N/A,,Clear,160,2013-06-18 11:15:00
4:35 AM,41.0,10.4,29,30.23,10.0,SSE,9.2,-,N/A,,Clear,150,2013-06-18 11:35:00
4:55 AM,41.0,12.2,31,30.23,10.0,SSE,9.2,-,N/A,,Clear,150,2013-06-18 11:55:00
5:15 AM,41.0,12.2,31,30.23,10.0,SSE,8.1,-,N/A,,Clear,150,2013-06-18 12:15:00
5:35 AM,41.0,12.2,31,30.24,10.0,SSE,9.2,-,N/A,,Clear,150,2013-06-18 12:35:00
5:55 AM,44.6,14.0,29,30.24,10.0,SSE,9.2,-,N/A,,Clear,150,2013-06-18 12:55:00
6:15 AM,46.4,14.0,27,30.24,10.0,SSE,8.1,-,N/A,,Clear,150,2013-06-18 13:15:00
6:35 AM,51.8,15.8,24,30.25,10.0,SSE,6.9,-,N/A,,Clear,150,2013-06-18 13:35:00
6:55 AM,55.4,15.8,21,30.25,10.0,SSE,5.8,-,N/A,,Clear,150,2013-06-18 13:55:00
7:15 AM,60.8,17.6,19,30.24,10.0,SE,5.8,-,N/A,,Clear,140,2013-06-18 14:15:00
7:35 AM,66.2,17.6,15,30.25,10.0,SE,5.8,-,N/A,,Clear,140,2013-06-18 14:35:00
7:55 AM,71.6,17.6,13,30.25,10.0,South,6.9,-,N/A,,Clear,170,2013-06-18 14:55:00
8:15 AM,71.6,17.6,13,30.25,10.0,South,12.7,-,N/A,,Clear,170,2013-06-18 15:15:00
8:35 AM,73.4,17.6,12,30.25,10.0,South,12.7,16.1,N/A,,Clear,170,2013-06-18 15:35:00
8:55 AM,73.4,17.6,12,30.25,10.0,SSE,12.7,19.6,N/A,,Clear,160,2013-06-18 15:55:00
9:15 AM,73.4,17.6,12,30.25,10.0,South,13.8,19.6,N/A,,Clear,180,2013-06-18 16:15:00
9:35 AM,75.2,15.8,11,30.25,10.0,SW,15.0,21.9,N/A,,Clear,220,2013-06-18 16:35:00
9:55 AM,75.2,15.8,11,30.24,10.0,SSW,17.3,23.0,N/A,,Clear,210,2013-06-18 16:55:00
10:15 AM,75.2,14.0,10,30.24,10.0,South,18.4,27.6,N/A,,Clear,190,2013-06-18 17:15:00
10:35 AM,75.2,15.8,11,30.24,10.0,SSW,15.0,23.0,N/A,,Clear,210,2013-06-18 17:35:00
10:55 AM,77.0,15.8,10,30.24,10.0,SSW,13.8,21.9,N/A,,Clear,200,2013-06-18 17:55:00
11:15 AM,77.0,15.8,10,30.24,10.0,SSW,17.3,26.5,N/A,,Clear,200,2013-06-18 18:15:00
11:35 AM,78.8,14.0,9,30.24,10.0,SSE,15.0,25.3,N/A,,Clear,160,2013-06-18 18:35:00
11:55 AM,78.8,12.2,8,30.24,10.0,SSW,20.7,26.5,N/A,,Clear,210,2013-06-18 18:55:00
12:15 PM,78.8,14.0,9,30.23,10.0,South,9.2,26.5,N/A,,Clear,190,2013-06-18 19:15:00
12:35 PM,80.6,14.0,8,30.22,10.0,South,16.1,28.8,N/A,,Clear,180,2013-06-18 19:35:00
12:55 PM,82.4,14.0,8,30.22,10.0,South,21.9,29.9,N/A,,Clear,190,2013-06-18 19:55:00
1:15 PM,82.4,14.0,8,30.21,10.0,SW,16.1,25.3,N/A,,Clear,220,2013-06-18 20:15:00
1:35 PM,82.4,12.2,7,30.21,10.0,SSW,17.3,26.5,N/A,,Clear,210,2013-06-18 20:35:00
1:55 PM,82.4,10.4,7,30.20,10.0,SW,11.5,29.9,N/A,,Clear,220,2013-06-18 20:55:00
2:15 PM,82.4,10.4,7,30.20,10.0,SW,15.0,29.9,N/A,,Clear,220,2013-06-18 21:15:00
2:35 PM,82.4,12.2,7,30.19,10.0,SSW,18.4,27.6,N/A,,Clear,200,2013-06-18 21:35:00
2:55 PM,82.4,12.2,7,30.19,9.0,SSW,20.7,26.5,N/A,,Clear,210,2013-06-18 21:55:00
3:15 PM,80.6,14.0,8,30.19,9.0,South,15.0,24.2,N/A,,Clear,190,2013-06-18 22:15:00
3:35 PM,80.6,14.0,8,30.19,9.0,South,16.1,25.3,N/A,,Clear,190,2013-06-18 22:35:00
3:55 PM,80.6,12.2,8,30.18,9.0,SSW,15.0,25.3,N/A,,Clear,210,2013-06-18 22:55:00
4:15 PM,80.6,14.0,8,30.17,10.0,South,16.1,24.2,N/A,,Clear,190,2013-06-18 23:15:00
4:35 PM,80.6,12.2,8,30.17,10.0,SSW,16.1,24.2,N/A,,Clear,200,2013-06-18 23:35:00
4:55 PM,80.6,10.4,7,30.16,10.0,South,20.7,27.6,N/A,,Clear,180,2013-06-18 23:55:00
5:15 PM,80.6,12.2,8,30.15,10.0,SSW,11.5,24.2,N/A,,Clear,200,2013-06-19 00:15:00
5:35 PM,78.8,12.2,8,30.15,10.0,South,19.6,25.3,N/A,,Clear,180,2013-06-19 00:35:00
5:55 PM,78.8,12.2,8,30.15,10.0,South,13.8,21.9,N/A,,Clear,190,2013-06-19 00:55:00
6:15 PM,77.0,12.2,9,30.15,10.0,South,15.0,23.0,N/A,,Clear,190,2013-06-19 01:15:00
6:35 PM,77.0,12.2,9,30.15,10.0,South,16.1,20.7,N/A,,Clear,190,2013-06-19 01:35:00
6:55 PM,75.2,12.2,9,30.15,10.0,South,17.3,21.9,N/A,,Clear,190,2013-06-19 01:55:00
7:15 PM,75.2,12.2,9,30.15,10.0,SSW,12.7,21.9,N/A,,Clear,200,2013-06-19 02:15:00
7:35 PM,73.4,10.4,9,30.14,10.0,South,9.2,19.6,N/A,,Clear,190,2013-06-19 02:35:00
7:55 PM,71.6,10.4,9,30.14,10.0,South,11.5,-,N/A,,Clear,190,2013-06-19 02:55:00
8:15 PM,71.6,10.4,9,30.14,10.0,SSW,12.7,18.4,N/A,,Clear,200,2013-06-19 03:15:00
8:35 PM,69.8,8.6,9,30.14,10.0,SSW,11.5,-,N/A,,Clear,200,2013-06-19 03:35:00
8:55 PM,68.0,8.6,10,30.15,10.0,South,9.2,16.1,N/A,,Clear,180,2013-06-19 03:55:00
9:15 PM,68.0,8.6,10,30.15,10.0,South,9.2,-,N/A,,Clear,170,2013-06-19 04:15:00
9:35 PM,68.0,8.6,10,30.16,10.0,South,13.8,19.6,N/A,,Clear,180,2013-06-19 04:35:00
9:55 PM,68.0,6.8,9,30.16,10.0,SSE,9.2,17.3,N/A,,Clear,160,2013-06-19 04:55:00
10:15 PM,62.6,8.6,12,30.16,10.0,SSE,6.9,-,N/A,,Clear,150,2013-06-19 05:15:00
10:35 PM,62.6,8.6,12,30.15,10.0,SSE,10.4,-,N/A,,Clear,150,2013-06-19 05:35:00
10:55 PM,62.6,6.8,11,30.15,10.0,SSE,11.5,-,N/A,,Clear,150,2013-06-19 05:55:00
11:15 PM,62.6,6.8,11,30.14,10.0,SSE,10.4,-,N/A,,Clear,160,2013-06-19 06:15:00
11:35 PM,62.6,6.8,11,30.14,10.0,SSE,9.2,-,N/A,,Clear,160,2013-06-19 06:35:00
11:55 PM,60.8,6.8,12,30.14,10.0,South,8.1,-,N/A,,Clear,170,2013-06-19 06:55:00